Time;durP1;ratioP1;P1;durP2;ratioP2;P2;SDS_P1;SDS_P2;PMS_P1;PMS_P2;Temp;Humidity;BMP_temperature;BMP_pressure;BME280_temperature;BME280_humidity;BME280_pressure;Samples;Min_cycle;Max_cycle;Signal;HPM_P1;HPM_P2
2022/06/22 00:01:45;;;;;;;6.35;2.38;;;;;;;10.35;77.10;99063.22;8386041;28;20045;-72
2022/06/22 00:05:49;;;;;;;3.92;2.00;;;;;;;10.34;77.28;99064.31;8411859;28;20454;-72
2022/06/22 00:10:02;;;;;;;3.58;1.95;;;;;;;10.30;77.33;99057.94;8449248;28;20051;-72
2022/06/22 00:14:03;;;;;;;4.03;2.03;;;;;;;10.20;77.24;99066.28;8433689;28;20044;-72
2022/06/22 00:18:28;;;;;;;4.80;2.63;;;;;;;10.12;77.23;99077.78;8433477;28;20036;-71
2022/06/22 00:22:29;;;;;;;5.00;2.17;;;;;;;10.07;77.70;99072.50;8455780;28;20106;-72
2022/06/22 00:26:36;;;;;;;4.50;2.38;;;;;;;10.06;77.33;99077.09;8445313;28;20052;-71
2022/06/22 00:30:45;;;;;;;5.70;2.45;;;;;;;10.05;77.49;99077.38;8503545;27;20073;-71
2022/06/22 00:34:46;;;;;;;4.13;2.25;;;;;;;10.06;77.44;99079.00;8497486;27;20074;-72
2022/06/22 00:38:47;;;;;;;4.93;2.35;;;;;;;9.97;77.47;99091.63;8499041;27;20055;-72
2022/06/22 00:42:50;;;;;;;6.25;2.30;;;;;;;9.90;77.30;99093.94;8480436;27;20047;-71
2022/06/22 00:46:57;;;;;;;4.60;2.30;;;;;;;9.81;77.74;99093.88;8484571;27;20046;-72
2022/06/22 00:51:07;;;;;;;4.35;2.35;;;;;;;9.81;77.64;99087.66;8517303;27;20057;-72
2022/06/22 00:55:26;;;;;;;5.18;2.17;;;;;;;9.81;77.33;99093.06;8409213;28;20051;-72
2022/06/22 00:59:38;;;;;;;2.55;2.00;;;;;;;9.76;77.70;99091.28;8425683;28;20047;-72
2022/06/22 01:04:04;;;;;;;4.65;2.50;;;;;;;9.75;77.86;99095.88;8403766;28;20076;-71
2022/06/22 01:08:12;;;;;;;4.53;2.20;;;;;;;9.67;77.93;99088.53;8235568;28;20090;-71
2022/06/22 01:12:25;;;;;;;5.43;2.40;;;;;;;9.63;78.13;99082.09;8231056;28;20054;-72
2022/06/22 01:16:29;;;;;;;8.05;2.55;;;;;;;9.59;78.65;99069.53;8228208;28;20063;-72
2022/06/22 01:21:00;;;;;;;6.70;2.70;;;;;;;9.61;78.57;99057.38;8212711;28;20512;-71
2022/06/22 01:25:14;;;;;;;9.30;2.20;;;;;;;9.57;78.56;99048.25;8216307;28;20569;-71
2022/06/22 01:29:19;;;;;;;4.82;2.50;;;;;;;9.54;79.00;99056.97;8231470;28;20505;-71
2022/06/22 01:33:25;;;;;;;5.95;2.70;;;;;;;9.49;78.93;99065.16;8221080;28;20463;-71
2022/06/22 01:37:31;;;;;;;4.15;2.30;;;;;;;9.46;79.46;99065.78;8282783;28;20062;-71
2022/06/22 01:41:52;;;;;;;5.60;2.20;;;;;;;9.44;79.38;99051.81;8327627;28;20614;-71
2022/06/22 01:46:07;;;;;;;4.15;2.20;;;;;;;9.35;79.56;99048.22;8421867;28;20052;-72
2022/06/22 01:50:42;;;;;;;5.05;2.55;;;;;;;9.29;79.43;99044.03;8447188;28;20139;-71
2022/06/22 01:55:03;;;;;;;6.10;2.22;;;;;;;9.27;79.56;99047.03;8445466;28;20040;-71
2022/06/22 01:59:32;;;;;;;5.03;2.78;;;;;;;9.25;79.59;99061.91;8439931;28;20387;-72
2022/06/22 02:03:42;;;;;;;10.07;2.90;;;;;;;9.15;79.72;99060.19;8436253;28;20083;-71
2022/06/22 02:07:48;;;;;;;5.13;2.50;;;;;;;9.09;79.52;99072.19;8451743;28;20059;-71
2022/06/22 02:12:18;;;;;;;4.18;2.30;;;;;;;9.03;79.78;99072.59;8409901;28;20571;-71
2022/06/22 02:16:27;;;;;;;6.68;2.97;;;;;;;9.03;79.96;99077.97;8444943;28;20070;-72
2022/06/22 02:20:37;;;;;;;4.75;2.35;;;;;;;9.02;80.13;99060.22;8455770;28;20071;-71
2022/06/22 02:24:46;;;;;;;5.03;2.40;;;;;;;9.03;79.98;99056.44;8442997;28;20048;-72
2022/06/22 02:28:48;;;;;;;5.40;1.95;;;;;;;9.01;80.28;99053.22;8462448;27;20497;-72
2022/06/22 02:32:49;;;;;;;4.47;2.20;;;;;;;8.98;80.27;99048.44;8484430;27;20051;-73
2022/06/22 02:36:51;;;;;;;5.15;2.72;;;;;;;8.94;80.49;99052.81;8460700;27;20130;-72
2022/06/22 02:45:15;;;;;;;5.20;2.30;;;;;;;8.99;79.84;99050.06;8486107;27;20055;-73
2022/06/22 02:49:24;;;;;;;4.60;2.40;;;;;;;9.01;80.07;99042.44;8500435;27;20549;-71
2022/06/22 02:53:33;;;;;;;4.78;2.65;;;;;;;8.95;80.13;99043.66;8522920;27;20046;-71
2022/06/22 02:57:48;;;;;;;3.25;1.95;;;;;;;8.86;80.55;99041.66;8498459;27;20027;-72
2022/06/22 03:01:49;;;;;;;5.93;2.88;;;;;;;8.86;80.26;99041.66;8511134;27;20134;-71
2022/06/22 03:05:54;;;;;;;3.22;2.00;;;;;;;8.84;80.64;99043.84;8483683;27;20096;-72
2022/06/22 03:09:55;;;;;;;3.80;2.05;;;;;;;8.84;80.54;99049.22;8514516;27;20066;-72
2022/06/22 03:14:18;;;;;;;7.57;2.65;;;;;;;8.87;80.78;99048.66;8498089;27;20412;-71
2022/06/22 03:18:28;;;;;;;5.85;2.30;;;;;;;8.92;81.04;99055.84;8506102;27;20050;-71
2022/06/22 03:22:33;;;;;;;10.38;2.78;;;;;;;8.99;81.01;99050.06;8506132;27;20053;-72
2022/06/22 03:26:40;;;;;;;5.47;2.45;;;;;;;9.03;80.83;99051.03;8507445;27;20118;-71
2022/06/22 03:30:51;;;;;;;7.60;2.60;;;;;;;9.05;80.87;99043.44;8508476;27;20055;-71
2022/06/22 03:35:10;;;;;;;3.58;1.95;;;;;;;9.08;80.95;99042.84;8486115;27;20043;-72
2022/06/22 03:39:15;;;;;;;7.88;2.53;;;;;;;9.16;80.92;99044.84;8501326;27;20051;-71
2022/06/22 03:43:32;;;;;;;4.60;2.30;;;;;;;9.21;81.18;99059.00;8509924;27;20430;-72
2022/06/22 03:47:54;;;;;;;4.22;1.98;;;;;;;9.27;81.03;99075.88;8509361;27;20047;-71
2022/06/22 03:51:58;;;;;;;5.10;2.20;;;;;;;9.31;80.99;99084.94;8512808;27;20058;-72
2022/06/22 03:56:03;;;;;;;7.05;2.67;;;;;;;9.43;81.21;99082.53;8501746;27;20437;-72
2022/06/22 04:00:06;;;;;;;8.88;2.55;;;;;;;9.61;80.72;99089.72;8507313;27;20043;-71
2022/06/22 04:04:08;;;;;;;4.65;2.30;;;;;;;9.78;81.09;99104.47;8501469;27;20058;-72
2022/06/22 04:08:14;;;;;;;6.68;2.78;;;;;;;9.92;80.96;99095.25;8466685;27;20476;-71
2022/06/22 04:12:21;;;;;;;7.15;3.15;;;;;;;10.10;81.06;99093.47;8493055;27;20043;-71
2022/06/22 04:16:26;;;;;;;6.47;3.20;;;;;;;10.29;80.84;99083.34;8502262;27;20047;-72
2022/06/22 04:20:58;;;;;;;10.23;3.33;;;;;;;10.44;81.05;99074.84;8500075;27;20039;-72
2022/06/22 04:25:26;;;;;;;7.43;3.47;;;;;;;10.56;81.21;99066.19;8392729;28;20076;-71
2022/06/22 04:29:45;;;;;;;6.18;3.63;;;;;;;10.72;80.90;99069.31;8406526;28;20123;-71
2022/06/22 04:33:52;;;;;;;6.75;3.00;;;;;;;10.96;81.88;99075.94;8384402;28;20122;-72
2022/06/22 04:38:33;;;;;;;7.22;2.47;;;;;;;11.22;84.84;99077.91;8393710;28;20055;-72
2022/06/22 04:42:36;;;;;;;6.35;2.55;;;;;;;11.42;84.10;99077.34;8295876;28;20038;-72
2022/06/22 04:46:44;;;;;;;6.28;2.75;;;;;;;11.62;84.26;99081.38;8296389;28;20049;-72
2022/06/22 04:50:48;;;;;;;12.80;3.43;;;;;;;11.85;85.54;99074.72;8263051;28;20100;-71
2022/06/22 04:54:53;;;;;;;6.53;2.58;;;;;;;12.06;85.51;99075.69;8293319;28;20053;-72
2022/06/22 04:58:55;;;;;;;6.10;2.60;;;;;;;12.24;84.52;99071.06;8235915;28;20081;-72
2022/06/22 05:03:06;;;;;;;7.38;2.80;;;;;;;12.40;84.00;99074.09;8323127;28;20593;-72
2022/06/22 05:07:38;;;;;;;8.88;2.55;;;;;;;12.55;82.52;99074.38;8326297;28;20509;-72
2022/06/22 05:11:44;;;;;;;6.72;2.40;;;;;;;12.73;81.75;99067.00;8323588;28;20431;-72
2022/06/22 05:15:49;;;;;;;8.43;2.00;;;;;;;12.90;81.06;99077.75;8311322;28;20049;-72
2022/06/22 05:19:58;;;;;;;6.10;2.50;;;;;;;13.12;80.12;99074.03;8429615;28;20429;-72
2022/06/22 05:24:02;;;;;;;7.40;2.00;;;;;;;13.32;78.86;99077.97;8452303;28;20048;-72
2022/06/22 05:28:05;;;;;;;5.38;1.92;;;;;;;13.52;78.02;99088.06;8451039;27;20486;-71
2022/06/22 05:32:15;;;;;;;7.03;1.75;;;;;;;13.75;76.23;99092.03;8519517;27;20507;-72
2022/06/22 05:36:20;;;;;;;6.07;1.45;;;;;;;13.99;74.82;99101.47;8522877;27;20523;-71
2022/06/22 05:40:24;;;;;;;5.15;1.60;;;;;;;14.11;72.72;99104.25;8474552;27;20047;-72
2022/06/22 05:44:26;;;;;;;5.10;1.45;;;;;;;14.19;71.86;99111.53;8520251;27;20042;-72
2022/06/22 05:48:27;;;;;;;5.53;1.58;;;;;;;14.40;70.16;99115.06;8514274;27;20499;-71
2022/06/22 05:52:41;;;;;;;7.47;1.42;;;;;;;14.57;68.96;99106.75;8513421;27;20066;-72
2022/06/22 05:57:05;;;;;;;3.50;1.02;;;;;;;14.64;67.65;99112.44;8504628;27;20039;-72
2022/06/22 06:01:17;;;;;;;3.92;1.58;;;;;;;14.76;66.18;99114.38;8511255;27;20113;-71
2022/06/22 06:05:25;;;;;;;4.70;1.27;;;;;;;14.89;64.99;99101.63;8514776;27;20043;-71
2022/06/22 06:09:28;;;;;;;4.80;1.30;;;;;;;15.13;63.02;99091.56;8427427;28;20490;-71
2022/06/22 06:13:42;;;;;;;6.70;1.30;;;;;;;15.38;62.00;99103.28;8411372;28;20044;-72
2022/06/22 06:17:49;;;;;;;5.20;1.83;;;;;;;15.53;61.59;99099.91;8395744;28;20048;-71
2022/06/22 06:21:54;;;;;;;3.58;1.33;;;;;;;15.62;62.02;99097.84;8441003;28;20052;-71
2022/06/22 06:30:29;;;;;;;7.05;1.50;;;;;;;15.85;63.22;99105.53;8455705;28;20051;-72
2022/06/22 06:34:38;;;;;;;6.32;1.27;;;;;;;15.97;62.97;99102.75;8431949;28;20159;-72
2022/06/22 06:39:02;;;;;;;5.10;1.30;;;;;;;16.06;62.53;99100.72;8476105;27;20066;-72
2022/06/22 06:43:21;;;;;;;5.45;1.45;;;;;;;16.18;62.05;99095.22;8493135;27;20042;-71
2022/06/22 06:47:30;;;;;;;4.25;1.02;;;;;;;16.32;61.91;99103.81;8530127;27;20081;-71
2022/06/22 06:51:35;;;;;;;;;;;;;;;16.40;61.98;99111.03;8516221;27;20086;-72
2022/06/22 06:55:50;;;;;;;5.18;1.45;;;;;;;16.54;59.75;99118.03;8490411;27;19927;-72
2022/06/22 06:59:54;;;;;;;4.30;1.30;;;;;;;16.67;59.16;99103.22;8520722;27;20075;-71
2022/06/22 07:03:58;;;;;;;4.13;1.17;;;;;;;16.87;57.99;99107.66;8513764;27;20047;-72
2022/06/22 07:08:12;;;;;;;3.22;1.27;;;;;;;16.98;58.04;99114.19;8520065;27;20039;-72
2022/06/22 07:12:25;;;;;;;4.20;1.35;;;;;;;17.13;55.61;99116.13;8511157;27;20484;-72
2022/06/22 07:16:33;;;;;;;3.13;1.30;;;;;;;17.27;55.81;99111.03;8529423;27;20763;-71
2022/06/22 07:20:39;;;;;;;3.78;0.98;;;;;;;17.44;54.00;99114.56;8497805;27;20050;-71
2022/06/22 07:24:49;;;;;;;2.97;1.00;;;;;;;17.62;53.87;99111.09;8500833;27;20516;-72
2022/06/22 07:28:59;;;;;;;4.80;1.30;;;;;;;17.80;52.95;99111.53;8516348;27;20484;-72
2022/06/22 07:33:20;;;;;;;3.50;0.90;;;;;;;17.98;53.05;99129.09;8475818;27;20047;-72
2022/06/22 07:37:26;;;;;;;4.78;1.33;;;;;;;18.14;51.94;99121.63;8528805;27;20050;-72
2022/06/22 07:41:29;;;;;;;17.08;1.38;;;;;;;18.27;52.55;99124.25;8510463;27;20039;-72
2022/06/22 07:45:29;;;;;;;1.85;1.15;;;;;;;18.37;52.31;99129.13;8511556;27;20130;-73
2022/06/22 07:49:46;;;;;;;2.67;1.10;;;;;;;18.38;50.74;99126.03;8510300;27;20055;-72
2022/06/22 07:54:10;;;;;;;4.30;1.08;;;;;;;18.46;47.61;99121.50;8503398;27;20179;-71
2022/06/22 07:58:17;;;;;;;3.22;1.08;;;;;;;18.58;46.38;99129.59;8509830;27;20061;-72
2022/06/22 08:02:21;;;;;;;1.92;0.85;;;;;;;18.71;46.46;99128.31;8523868;27;20070;-72
2022/06/22 08:06:26;;;;;;;2.40;0.77;;;;;;;18.83;45.22;99133.59;8496155;27;20055;-72
2022/06/22 08:10:35;;;;;;;2.72;0.80;;;;;;;19.05;42.58;99120.28;8504142;27;20126;-72
2022/06/22 08:14:42;;;;;;;3.22;0.70;;;;;;;19.23;41.80;99121.41;8494396;27;20050;-72
2022/06/22 08:18:44;;;;;;;3.15;0.70;;;;;;;19.30;42.25;99121.50;8494813;27;20043;-72
2022/06/22 08:22:46;;;;;;;1.95;0.70;;;;;;;19.46;41.60;99113.97;8505194;27;20050;-72
2022/06/22 08:26:49;;;;;;;4.30;1.13;;;;;;;19.62;42.97;99106.41;8523943;27;20050;-72
2022/06/22 08:30:52;;;;;;;2.63;0.68;;;;;;;19.83;40.76;99105.16;8508820;27;20062;-73
2022/06/22 08:34:55;;;;;;;4.60;0.82;;;;;;;20.03;40.72;99104.66;8494107;27;20050;-72
2022/06/22 08:39:09;;;;;;;4.20;0.90;;;;;;;20.16;39.71;99102.47;8518722;27;20051;-72
2022/06/22 08:43:20;;;;;;;2.80;0.98;;;;;;;20.27;40.83;99108.88;8508702;27;20058;-72
2022/06/22 08:47:28;;;;;;;3.38;0.90;;;;;;;20.40;40.49;99110.25;8506457;27;20055;-72
2022/06/22 08:51:54;;;;;;;5.80;0.98;;;;;;;20.59;38.73;99104.59;8507327;27;20545;-72
2022/06/22 08:56:23;;;;;;;5.72;1.00;;;;;;;20.63;39.58;99099.94;8472259;27;20480;-72
2022/06/22 09:00:51;;;;;;;2.57;1.20;;;;;;;20.79;40.52;99104.41;8510847;27;20042;-73
2022/06/22 09:05:14;;;;;;;4.60;1.10;;;;;;;20.97;39.06;99092.44;8501180;27;20054;-72
2022/06/22 09:09:36;;;;;;;4.38;1.13;;;;;;;21.00;38.15;99090.88;8529328;27;20419;-72
2022/06/22 09:13:59;;;;;;;4.43;1.10;;;;;;;21.13;38.39;99089.44;8507209;27;20054;-72
2022/06/22 09:18:00;;;;;;;5.10;0.80;;;;;;;21.32;38.94;99089.22;8519865;27;20428;-72
2022/06/22 09:22:19;;;;;;;4.45;1.00;;;;;;;21.51;38.82;99087.44;8532921;27;20039;-73
2022/06/22 09:26:38;;;;;;;;;;;;;;;21.74;38.95;99074.22;8500324;27;20038;-73
2022/06/22 09:31:04;;;;;;;1.70;1.00;;;;;;;21.79;37.06;99076.59;8532351;27;19994;-72
2022/06/22 09:35:26;;;;;;;5.18;1.23;;;;;;;21.82;35.70;99084.09;8526089;27;20047;-72
2022/06/22 09:39:49;;;;;;;2.47;0.75;;;;;;;21.93;37.03;99076.69;8527383;27;20050;-73
2022/06/22 09:44:09;;;;;;;3.08;1.42;;;;;;;22.10;37.70;99065.00;8521789;27;20058;-72
2022/06/22 09:48:31;;;;;;;4.82;0.80;;;;;;;22.26;38.16;99073.72;8513590;27;20536;-73
2022/06/22 09:53:10;;;;;;;2.00;0.82;;;;;;;22.42;36.86;99069.88;8475326;27;20370;-73
2022/06/22 09:57:48;;;;;;;2.75;0.70;;;;;;;22.50;37.10;99071.47;8306588;28;20085;-73
2022/06/22 10:02:07;;;;;;;4.38;1.08;;;;;;;22.68;37.56;99066.78;8326711;28;20125;-73
2022/06/22 10:06:23;;;;;;;;;;;;;;;22.80;37.88;99069.19;8311335;28;20046;-73
2022/06/22 10:10:39;;;;;;;13.77;1.20;;;;;;;22.99;37.55;99082.59;8325753;28;19921;-73
2022/06/22 10:14:58;;;;;;;1.88;0.90;;;;;;;22.81;35.80;99075.47;8307729;28;20592;-73
2022/06/22 10:19:30;;;;;;;5.13;0.93;;;;;;;22.91;35.75;99081.00;8324228;28;20045;-73
2022/06/22 10:23:31;;;;;;;3.83;1.20;;;;;;;23.09;34.54;99075.53;8316835;28;20053;-73
2022/06/22 10:27:38;;;;;;;2.35;1.00;;;;;;;23.37;34.91;99064.47;8317503;28;20161;-73
2022/06/22 10:32:00;;;;;;;5.82;1.00;;;;;;;23.59;34.52;99070.78;8383070;27;20406;-73
2022/06/22 10:36:23;;;;;;;10.82;1.42;;;;;;;23.66;34.09;99065.28;8504509;27;20116;-73
2022/06/22 10:45:16;;;;;;;3.05;0.90;;;;;;;24.12;34.60;99064.34;8514260;27;20066;-74
2022/06/22 10:49:53;;;;;;;3.95;1.20;;;;;;;24.08;34.16;99058.06;8512281;27;20043;-74
2022/06/22 10:54:15;;;;;;;4.28;1.23;;;;;;;23.58;34.24;99052.72;8495550;27;20072;-74
2022/06/22 10:58:35;;;;;;;2.78;1.10;;;;;;;22.90;35.68;99057.41;8512104;27;20051;-74
2022/06/22 11:02:57;;;;;;;4.55;1.00;;;;;;;22.76;34.32;99051.09;8511793;27;20099;-73
2022/06/22 11:07:19;;;;;;;7.28;1.00;;;;;;;23.34;35.22;99031.44;8485139;27;20470;-73
2022/06/22 11:11:29;;;;;;;2.20;0.98;;;;;;;23.85;34.17;99022.69;8502948;27;20057;-73
2022/06/22 11:15:46;;;;;;;1.73;0.80;;;;;;;24.01;32.89;99009.22;8526584;27;20054;-73
2022/06/22 11:20:17;;;;;;;1.80;1.10;;;;;;;24.23;33.23;99020.97;8496905;27;20070;-73
2022/06/22 11:24:45;;;;;;;4.95;0.88;;;;;;;24.42;32.71;99017.75;8492282;27;20042;-72
2022/06/22 11:33:56;;;;;;;2.33;0.90;;;;;;;24.61;31.51;99027.47;8517799;27;20088;-73
2022/06/22 11:38:02;;;;;;;2.50;1.05;;;;;;;24.77;31.29;99020.25;8353470;28;20109;-73
2022/06/22 11:42:37;;;;;;;2.42;0.90;;;;;;;24.98;31.41;99037.91;8353761;28;20091;-73
2022/06/22 11:46:45;;;;;;;5.60;1.02;;;;;;;25.07;31.81;99036.25;8305226;28;20048;-73
2022/06/22 11:50:54;;;;;;;;;;;;;;;25.17;31.69;99040.88;8350938;28;20055;-74
2022/06/22 11:55:19;;;;;;;2.87;1.00;;;;;;;25.29;31.07;99047.91;8329780;28;20002;-74
2022/06/22 11:59:29;;;;;;;3.13;0.85;;;;;;;25.58;32.20;99049.25;8351984;28;20057;-74
2022/06/22 12:03:51;;;;;;;4.63;1.23;;;;;;;25.14;33.04;99046.44;8319820;28;20049;-74
2022/06/22 12:08:31;;;;;;;3.30;1.05;;;;;;;24.70;31.53;99050.69;8302622;28;20831;-73
2022/06/22 12:12:53;;;;;;;3.17;1.05;;;;;;;24.27;32.54;99049.38;8393877;28;20039;-73
2022/06/22 12:17:32;;;;;;;2.47;0.98;;;;;;;24.56;31.79;99045.25;8485626;28;20087;-74
2022/06/22 12:21:53;;;;;;;4.60;0.87;;;;;;;25.08;31.05;99048.06;8387511;28;20132;-73
2022/06/22 12:26:28;;;;;;;1.67;0.93;;;;;;;25.51;31.40;99046.50;8387805;28;20632;-72
2022/06/22 12:30:35;;;;;;;2.67;0.90;;;;;;;25.64;30.52;99042.06;8385695;28;20040;-74
2022/06/22 12:34:41;;;;;;;3.58;0.98;;;;;;;25.76;29.31;99034.44;8393672;28;20048;-73
2022/06/22 12:38:46;;;;;;;1.60;0.80;;;;;;;25.90;28.99;99014.91;8357276;28;20045;-74
2022/06/22 12:43:20;;;;;;;3.72;1.20;;;;;;;25.90;29.29;99020.44;8355524;28;20094;-74
2022/06/22 12:47:44;;;;;;;3.45;1.00;;;;;;;26.11;29.63;99019.41;8360106;28;20526;-74
2022/06/22 12:51:49;;;;;;;6.38;1.00;;;;;;;26.09;29.05;99011.50;8359833;28;20045;-74
2022/06/22 12:55:59;;;;;;;5.00;1.10;;;;;;;26.24;28.70;99015.69;8341304;28;20093;-73
2022/06/22 13:00:00;;;;;;;2.03;0.80;;;;;;;26.46;28.65;99003.13;8381667;28;20078;-73
2022/06/22 13:04:17;;;;;;;2.45;0.80;;;;;;;26.30;28.39;99000.19;8389612;28;20512;-74
2022/06/22 13:08:21;;;;;;;4.60;1.10;;;;;;;26.12;29.09;99005.13;8409667;27;20113;-73
2022/06/22 13:12:30;;;;;;;2.00;0.93;;;;;;;26.32;29.62;99003.34;8473074;27;20043;-73
2022/06/22 13:16:36;;;;;;;4.30;0.95;;;;;;;26.71;29.27;99011.06;8482891;27;20485;-73
2022/06/22 13:21:01;;;;;;;1.70;1.20;;;;;;;26.95;28.24;99017.47;8457349;27;20043;-73
2022/06/22 13:25:25;;;;;;;2.53;0.80;;;;;;;26.91;28.44;99005.66;8481293;27;20054;-73
2022/06/22 13:29:38;;;;;;;1.98;1.33;;;;;;;26.96;27.67;99002.41;8458577;28;20152;-73
2022/06/22 13:33:45;;;;;;;1.75;0.90;;;;;;;27.25;28.41;98997.94;8458430;28;20126;-74
2022/06/22 13:38:16;;;;;;;3.33;1.10;;;;;;;28.11;27.68;98980.44;8441867;28;20047;-72
2022/06/22 13:42:21;;;;;;;2.50;0.90;;;;;;;29.14;25.16;98978.06;8455678;28;20052;-74
2022/06/22 13:46:57;;;;;;;2.60;1.05;;;;;;;30.51;24.03;98976.19;8457560;28;20147;-74
2022/06/22 13:51:39;;;;;;;3.40;1.20;;;;;;;32.03;23.47;98959.00;8331141;28;20526;-73
2022/06/22 13:55:49;;;;;;;3.75;1.15;;;;;;;33.49;22.42;98951.06;8326752;28;20056;-73
2022/06/22 14:00:16;;;;;;;3.20;1.10;;;;;;;32.99;23.43;98947.59;8347305;28;20106;-74
2022/06/22 14:04:31;;;;;;;3.03;1.05;;;;;;;33.29;22.66;98947.97;8343383;28;20449;-73
2022/06/22 14:08:43;;;;;;;8.02;1.65;;;;;;;34.33;21.69;98945.63;8308307;28;20120;-74
2022/06/22 14:12:48;;;;;;;5.22;1.20;;;;;;;34.74;21.66;98939.22;8358977;28;20055;-74
2022/06/22 14:16:54;;;;;;;2.92;1.17;;;;;;;35.30;19.86;98943.25;8342784;28;20076;-74
2022/06/22 14:21:10;;;;;;;8.57;1.23;;;;;;;35.67;19.76;98938.09;8324215;28;20495;-74
2022/06/22 14:25:41;;;;;;;5.88;1.40;;;;;;;36.25;20.21;98937.34;8457575;27;20062;-74
2022/06/22 14:30:00;;;;;;;6.38;1.35;;;;;;;37.52;19.19;98945.22;8351214;28;20045;-75
2022/06/22 14:34:30;;;;;;;3.97;1.00;;;;;;;37.87;19.17;98934.56;8349965;28;20049;-76
2022/06/22 14:38:56;;;;;;;2.22;1.00;;;;;;;38.30;18.83;98929.06;8305510;28;20047;-72
2022/06/22 14:43:09;;;;;;;1.83;1.00;;;;;;;38.21;17.44;98932.06;8346624;28;20045;-72
2022/06/22 14:47:26;;;;;;;4.50;1.30;;;;;;;37.84;16.80;98921.47;8349171;28;20511;-73
2022/06/22 14:51:42;;;;;;;4.45;1.00;;;;;;;37.80;17.18;98928.63;8355422;28;20497;-72
2022/06/22 14:55:55;;;;;;;5.00;1.10;;;;;;;37.67;16.83;98934.63;8353709;28;20041;-72
2022/06/22 15:00:27;;;;;;;2.10;1.00;;;;;;;37.63;17.24;98922.81;8344498;28;20446;-73
2022/06/22 15:04:31;;;;;;;2.70;1.20;;;;;;;37.37;17.80;98916.38;8353883;28;20481;-73
2022/06/22 15:08:59;;;;;;;4.30;1.25;;;;;;;37.35;17.62;98908.41;8455470;28;20055;-72
2022/06/22 15:13:34;;;;;;;5.32;1.38;;;;;;;35.34;20.36;98910.13;8458935;28;20039;-72
2022/06/22 15:17:57;;;;;;;5.25;1.10;;;;;;;35.51;19.60;98919.66;8352810;28;20041;-73
2022/06/22 15:22:06;;;;;;;5.15;1.00;;;;;;;35.26;20.00;98908.97;8317118;28;20074;-74
2022/06/22 15:26:38;;;;;;;3.13;0.93;;;;;;;34.71;20.01;98909.34;8321055;28;20463;-73
2022/06/22 15:30:54;;;;;;;3.75;1.20;;;;;;;35.22;19.65;98902.75;8284675;28;20080;-74
2022/06/22 15:35:03;;;;;;;2.10;1.10;;;;;;;35.72;19.01;98911.38;8289376;28;20518;-74
2022/06/22 15:39:23;;;;;;;4.13;1.40;;;;;;;36.18;18.85;98898.38;8272785;28;20042;-74
2022/06/22 15:43:33;;;;;;;3.60;0.90;;;;;;;36.25;19.32;98892.34;8289461;28;20826;-74
2022/06/22 15:48:26;;;;;;;1.98;1.00;;;;;;;34.65;21.31;98888.00;8286623;28;20060;-75
2022/06/22 15:52:52;;;;;;;5.22;1.40;;;;;;;33.89;20.75;98890.03;8147234;28;20047;-74
2022/06/22 15:57:08;;;;;;;2.25;1.00;;;;;;;33.02;21.69;98890.72;8221204;28;20062;-74
2022/06/22 16:01:12;;;;;;;5.28;1.23;;;;;;;32.04;22.23;98879.56;8160802;29;20047;-74
2022/06/22 16:05:53;;;;;;;2.60;0.90;;;;;;;31.41;22.79;98883.50;8176394;28;20096;-74
2022/06/22 16:10:03;;;;;;;3.20;1.15;;;;;;;31.12;22.84;98876.63;8216418;28;20066;-74
2022/06/22 16:14:13;;;;;;;3.40;0.80;;;;;;;30.46;23.94;98870.81;8200635;28;20734;-74
2022/06/22 16:18:23;;;;;;;9.20;1.00;;;;;;;30.07;24.56;98865.75;8204053;28;20059;-74
2022/06/22 16:22:32;;;;;;;4.70;1.20;;;;;;;29.58;24.41;98857.66;8198600;28;20057;-74
2022/06/22 16:26:42;;;;;;;6.40;0.93;;;;;;;29.46;25.22;98855.59;8211833;28;20530;-74
2022/06/22 16:31:01;;;;;;;2.75;1.10;;;;;;;29.76;24.50;98860.69;8424081;28;20097;-74
2022/06/22 16:35:42;;;;;;;2.80;0.93;;;;;;;29.93;24.59;98864.16;8405382;28;21276;-74
2022/06/22 16:39:57;;;;;;;4.55;1.00;;;;;;;29.44;25.21;98852.50;8422198;28;20586;-74
2022/06/22 16:44:57;;;;;;;5.78;1.00;;;;;;;29.23;25.80;98858.66;8445309;28;20446;-75
2022/06/22 16:49:07;;;;;;;4.05;1.17;;;;;;;30.49;23.69;98867.19;8293947;28;20050;-74
2022/06/22 16:53:12;;;;;;;2.03;0.85;;;;;;;32.03;21.71;98866.84;8294157;28;20046;-74
2022/06/22 16:57:20;;;;;;;4.15;1.00;;;;;;;32.49;21.16;98864.19;8277998;28;20065;-74
2022/06/22 17:01:26;;;;;;;3.70;1.15;;;;;;;30.97;23.67;98870.75;8226322;28;20079;-74
2022/06/22 17:06:00;;;;;;;5.90;1.30;;;;;;;29.66;25.12;98858.97;8245322;28;20105;-74
2022/06/22 17:10:39;;;;;;;9.15;1.20;;;;;;;28.44;26.85;98864.66;8197342;29;20098;-73
2022/06/22 17:14:43;;;;;;;4.47;1.40;;;;;;;27.75;27.97;98863.88;8197306;29;20068;-75
2022/06/22 17:18:44;;;;;;;4.68;1.15;;;;;;;27.35;28.66;98862.28;8180359;29;20479;-74
2022/06/22 17:22:48;;;;;;;3.92;1.20;;;;;;;26.99;29.34;98868.53;8208272;28;20046;-73
2022/06/22 17:27:11;;;;;;;7.63;1.10;;;;;;;26.62;30.46;98879.84;8291647;28;20459;-73
2022/06/22 17:31:32;;;;;;;5.85;1.10;;;;;;;26.36;30.99;98871.19;8309183;28;20073;-73
2022/06/22 17:35:50;;;;;;;8.05;1.02;;;;;;;26.26;31.37;98877.66;8325924;28;20507;-73
2022/06/22 17:40:23;;;;;;;3.83;1.20;;;;;;;26.04;31.80;98870.84;8340544;28;20461;-73
2022/06/22 17:44:37;;;;;;;3.30;1.02;;;;;;;25.65;32.42;98883.22;8384976;27;20079;-73
2022/06/22 17:48:46;;;;;;;5.03;1.30;;;;;;;25.46;33.47;98874.75;8496268;27;20057;-73
2022/06/22 17:52:51;;;;;;;12.85;2.92;;;;;;;25.24;33.80;98875.00;8495598;27;20051;-72
2022/06/22 17:56:57;;;;;;;7.93;2.63;;;;;;;25.08;34.51;98876.78;8457421;27;20480;-75
2022/06/22 18:01:00;;;;;;;9.13;3.22;;;;;;;24.99;34.81;98884.75;8490082;27;20126;-74
2022/06/22 18:05:32;;;;;;;6.80;2.20;;;;;;;24.88;35.43;98884.09;8477059;27;20078;-74
2022/06/22 18:09:48;;;;;;;4.90;1.95;;;;;;;24.70;36.46;98885.00;8491247;27;20039;-74
2022/06/22 18:13:56;;;;;;;5.68;2.00;;;;;;;24.40;37.64;98893.16;8492674;27;20039;-75
2022/06/22 18:17:58;;;;;;;6.65;2.22;;;;;;;24.22;38.13;98892.47;8495049;27;20495;-75
2022/06/22 18:22:22;;;;;;;12.27;3.22;;;;;;;24.03;38.58;98895.72;8475817;27;20310;-74
2022/06/22 18:26:25;;;;;;;7.53;2.78;;;;;;;23.89;38.70;98902.91;8453878;27;20043;-73
2022/06/22 18:30:47;;;;;;;9.43;2.60;;;;;;;23.70;39.24;98906.16;8520224;27;20046;-72
2022/06/22 18:35:14;;;;;;;8.05;3.22;;;;;;;23.46;40.42;98907.03;8511484;27;20092;-72
2022/06/22 18:44:04;;;;;;;8.80;2.30;;;;;;;22.96;42.04;98909.88;8506810;27;20043;-72
2022/06/22 18:48:19;;;;;;;7.38;1.88;;;;;;;22.70;42.83;98921.28;8527346;27;20088;-73
2022/06/22 18:52:27;;;;;;;4.53;1.70;;;;;;;22.40;43.82;98923.63;8520601;27;20134;-74
2022/06/22 18:56:30;;;;;;;7.83;1.83;;;;;;;22.10;44.53;98927.50;8506510;27;20046;-74
2022/06/22 19:00:31;;;;;;;3.50;1.42;;;;;;;21.84;45.54;98930.53;8527278;27;20031;-73
2022/06/22 19:04:32;;;;;;;5.57;2.03;;;;;;;21.61;46.03;98932.81;8528492;27;20466;-73
2022/06/22 19:08:44;;;;;;;7.43;2.05;;;;;;;21.35;46.84;98926.44;8522017;27;20054;-75
2022/06/22 19:12:52;;;;;;;7.82;1.98;;;;;;;21.14;47.25;98937.28;8516664;27;20067;-72
2022/06/22 19:16:59;;;;;;;8.02;2.17;;;;;;;20.91;48.53;98940.22;8508090;27;20043;-73
2022/06/22 19:21:19;;;;;;;6.38;2.10;;;;;;;20.67;49.27;98940.03;8528067;27;20433;-73
2022/06/22 19:25:38;;;;;;;5.80;1.80;;;;;;;20.44;49.92;98943.75;8519412;27;20081;-73
2022/06/22 19:29:44;;;;;;;4.85;1.50;;;;;;;20.24;50.46;98945.09;8471586;27;20050;-72
2022/06/22 19:33:51;;;;;;;6.68;1.90;;;;;;;20.08;50.87;98944.53;8453488;28;20588;-72
2022/06/22 19:37:54;;;;;;;7.40;3.13;;;;;;;19.91;51.08;98942.38;8435673;28;20079;-73
2022/06/22 19:42:05;;;;;;;9.30;4.40;;;;;;;19.74;51.44;98950.03;8452795;28;20062;-72
2022/06/22 19:46:27;;;;;;;11.38;5.35;;;;;;;19.50;52.44;98949.72;8436386;28;20060;-73
2022/06/22 19:50:40;;;;;;;10.82;6.20;;;;;;;19.35;52.59;98954.19;8448475;28;20047;-72
2022/06/22 19:55:03;;;;;;;15.90;8.55;;;;;;;19.17;53.03;98964.09;8420068;28;20466;-72
2022/06/22 19:59:06;;;;;;;10.23;5.68;;;;;;;19.01;53.50;98949.78;8453021;28;20043;-72
2022/06/22 20:03:23;;;;;;;9.55;4.93;;;;;;;18.85;53.69;98947.97;8447443;28;20995;-73
2022/06/22 20:08:02;;;;;;;6.82;4.60;;;;;;;18.68;54.21;98948.47;8446861;28;20051;-72
2022/06/22 20:12:38;;;;;;;11.02;6.10;;;;;;;18.48;54.36;98955.94;8331263;28;20068;-72
2022/06/22 20:16:45;;;;;;;20.27;8.13;;;;;;;18.30;54.87;98959.50;8268231;28;20050;-72
2022/06/22 20:20:55;;;;;;;16.40;6.45;;;;;;;18.18;55.41;98967.88;8277711;28;20046;-72